Natividade, Brazil
Current Conditions -  °F | °C
As of 3:00 PM on Monday 20 Oct 2014 (Local Time) from SBCP Reporting Station
Broken Clouds Broken Clouds  
Wind Chill: 84°   Ceiling: 9000
Heat Index: 90°   Visibility: 6mi
Dew Point: 72°   Wind: 23mph
Humidity: 66%   Direction: 160°SSE
Pressure: 29.85"   Gusts: NA
Location:  21.05°S, 41.99°W
Report Text: SBCP 201800Z 16020KT 9999 FEW020 BKN090 29/22 Q1011
Loading
Personal Weather Stations






























Interactive Weather Map
Tropical Storm Tracking
New forecast layout! Learn more

10-Day Weather Forecast

Advertisements
Track Severe Weather on mobile